createdAt,value
2022-12-01T00:01:34.375Z,15.60
2022-12-01T00:04:02.770Z,15.70
2022-12-01T00:06:30.557Z,15.80
2022-12-01T00:09:14.000Z,15.40
2022-12-01T00:11:43.178Z,14.60
2022-12-01T00:14:11.092Z,15.00
2022-12-01T00:16:40.594Z,13.90
2022-12-01T00:19:08.755Z,12.40
2022-12-01T00:21:36.567Z,13.60
2022-12-01T00:24:04.362Z,13.90
2022-12-01T00:26:32.658Z,14.90
2022-12-01T00:29:00.524Z,13.80
2022-12-01T00:31:28.570Z,15.40
2022-12-01T00:33:56.399Z,17.70
2022-12-01T00:36:24.348Z,18.20
2022-12-01T00:38:54.934Z,17.30
2022-12-01T00:41:24.530Z,17.60
2022-12-01T00:43:52.526Z,16.70
2022-12-01T00:46:20.956Z,15.60
2022-12-01T00:48:49.983Z,15.90
2022-12-01T00:51:17.918Z,16.60
2022-12-01T00:53:46.008Z,14.60
2022-12-01T00:56:14.903Z,14.70
2022-12-01T00:58:42.628Z,14.40
2022-12-01T01:01:10.667Z,13.90
2022-12-01T01:03:38.759Z,12.40
2022-12-01T01:06:10.962Z,12.40
2022-12-01T01:08:40.525Z,12.90
2022-12-01T01:11:09.293Z,13.90
2022-12-01T01:13:37.843Z,12.10
2022-12-01T01:16:14.771Z,12.20
2022-12-01T01:18:42.614Z,11.00
2022-12-01T01:21:13.877Z,11.40
2022-12-01T01:23:41.946Z,9.90
2022-12-01T01:26:14.809Z,8.50
2022-12-01T01:28:42.887Z,8.00
2022-12-01T01:31:14.867Z,7.90
2022-12-01T01:33:43.030Z,9.00
2022-12-01T01:36:11.044Z,8.70
2022-12-01T01:38:38.922Z,8.30
2022-12-01T01:41:07.215Z,8.90
2022-12-01T01:43:45.300Z,8.80
2022-12-01T01:46:24.895Z,8.60
2022-12-01T01:49:03.091Z,7.70
2022-12-01T01:51:40.456Z,7.80
2022-12-01T01:54:16.397Z,7.70
2022-12-01T01:56:45.167Z,7.80
2022-12-01T01:59:22.518Z,7.70
2022-12-01T02:01:57.616Z,7.00
2022-12-01T02:04:27.624Z,7.50
2022-12-01T02:06:55.538Z,8.70
2022-12-01T02:09:23.364Z,8.10
2022-12-01T02:12:16.403Z,8.50
2022-12-01T02:15:08.819Z,9.50
2022-12-01T02:17:51.917Z,10.40
2022-12-01T02:20:49.184Z,11.50
2022-12-01T02:23:47.241Z,12.90
2022-12-01T02:26:33.725Z,14.00
2022-12-01T02:29:29.604Z,13.50
2022-12-01T02:32:12.400Z,14.20
2022-12-01T02:35:09.925Z,13.40
2022-12-01T02:40:24.947Z,11.80
2022-12-01T02:43:05.241Z,12.10
2022-12-01T02:45:43.260Z,11.90
2022-12-01T02:48:16.646Z,12.00
2022-12-01T02:50:46.349Z,11.40
2022-12-01T02:53:17.536Z,10.00
2022-12-01T02:55:51.883Z,9.60
2022-12-01T02:58:20.285Z,9.80
2022-12-01T03:01:02.486Z,8.50
2022-12-01T03:03:46.506Z,8.90
2022-12-01T03:06:26.853Z,9.40
2022-12-01T03:09:10.294Z,9.80
2022-12-01T03:11:57.785Z,9.00
2022-12-01T03:14:40.930Z,9.00
2022-12-01T03:17:14.894Z,9.10
2022-12-01T03:19:49.162Z,9.20
2022-12-01T03:22:24.856Z,10.00
2022-12-01T03:24:55.941Z,9.70
2022-12-01T03:27:29.869Z,9.90
2022-12-01T03:30:01.063Z,8.90
2022-12-01T03:32:35.502Z,10.00
2022-12-01T03:35:10.887Z,14.00
2022-12-01T03:37:53.581Z,10.80
2022-12-01T03:40:27.211Z,10.20
2022-12-01T03:42:59.764Z,9.90
2022-12-01T03:45:37.867Z,10.40
2022-12-01T03:48:06.483Z,10.20
2022-12-01T03:50:44.084Z,9.90
2022-12-01T03:53:20.241Z,10.10
2022-12-01T03:55:53.813Z,9.60
2022-12-01T03:58:28.762Z,9.40
2022-12-01T04:00:57.711Z,9.60
2022-12-01T04:03:26.563Z,9.60
2022-12-01T04:05:54.661Z,9.70
2022-12-01T04:08:22.490Z,9.60
2022-12-01T04:10:50.261Z,9.50
2022-12-01T04:13:23.305Z,9.20
2022-12-01T04:15:53.656Z,10.50
2022-12-01T04:18:22.189Z,9.30
2022-12-01T04:20:50.967Z,9.90
2022-12-01T04:23:36.612Z,9.50
2022-12-01T04:26:05.280Z,8.60
2022-12-01T04:28:35.997Z,9.00
2022-12-01T04:31:03.930Z,8.80
2022-12-01T04:33:31.832Z,8.70
2022-12-01T04:36:01.521Z,8.10
2022-12-01T04:38:31.030Z,7.90
2022-12-01T04:40:59.440Z,9.20
2022-12-01T04:43:27.166Z,8.00
2022-12-01T04:45:57.437Z,8.50
2022-12-01T04:48:25.221Z,8.50
2022-12-01T04:50:53.028Z,8.70
2022-12-01T04:53:21.028Z,8.70
2022-12-01T04:55:48.892Z,7.80
2022-12-01T04:58:16.692Z,7.70
2022-12-01T05:00:44.608Z,8.20
2022-12-01T05:03:15.227Z,8.40
2022-12-01T05:05:43.220Z,8.70
2022-12-01T05:08:11.072Z,8.30
2022-12-01T05:10:38.998Z,9.00
2022-12-01T05:13:06.891Z,8.70
2022-12-01T05:15:34.563Z,9.80
2022-12-01T05:18:02.376Z,9.00
2022-12-01T05:20:49.965Z,9.10
2022-12-01T05:23:17.739Z,10.00
2022-12-01T05:25:45.471Z,10.40
2022-12-01T05:28:13.331Z,10.70
2022-12-01T05:30:41.109Z,9.80
2022-12-01T05:33:08.826Z,10.40
2022-12-01T05:35:36.584Z,12.40
2022-12-01T05:38:08.003Z,10.50
2022-12-01T05:40:37.421Z,10.60
2022-12-01T05:43:06.055Z,11.10
2022-12-01T05:45:34.610Z,11.00
2022-12-01T05:48:02.875Z,10.90
2022-12-01T05:50:30.967Z,10.50
2022-12-01T05:52:58.730Z,10.20
2022-12-01T05:55:26.455Z,10.90
2022-12-01T05:57:54.258Z,10.60
2022-12-01T06:00:22.089Z,9.70
2022-12-01T06:02:49.780Z,9.40
2022-12-01T06:05:17.651Z,9.00
2022-12-01T06:07:45.570Z,8.80
2022-12-01T06:10:14.042Z,10.10
2022-12-01T06:12:41.923Z,10.00
2022-12-01T06:15:12.246Z,9.30
2022-12-01T06:17:40.714Z,8.60
2022-12-01T06:20:09.702Z,9.20
2022-12-01T06:22:37.460Z,9.80
2022-12-01T06:25:07.407Z,11.20
2022-12-01T06:27:35.243Z,10.50
2022-12-01T06:30:04.850Z,10.60
2022-12-01T06:32:32.602Z,10.90
2022-12-01T06:35:00.328Z,10.90
2022-12-01T06:37:28.396Z,11.50
2022-12-01T06:39:56.302Z,13.20
2022-12-01T06:42:24.035Z,12.70
2022-12-01T06:44:51.827Z,14.70
2022-12-01T06:47:22.386Z,26.10
2022-12-01T06:49:50.434Z,24.90
2022-12-01T06:52:18.398Z,15.00
2022-12-01T06:54:46.253Z,14.10
2022-12-01T06:57:14.513Z,14.00
2022-12-01T06:59:42.415Z,12.70
2022-12-01T07:02:11.758Z,11.70
2022-12-01T07:04:39.672Z,12.30
2022-12-01T07:07:07.733Z,12.20
2022-12-01T07:09:35.633Z,11.30
2022-12-01T07:12:03.617Z,11.80
2022-12-01T07:14:32.514Z,10.70
2022-12-01T07:17:00.343Z,11.10
2022-12-01T07:19:28.133Z,10.80
2022-12-01T07:21:56.166Z,12.70
2022-12-01T07:24:23.873Z,11.50
2022-12-01T07:26:51.687Z,10.70
2022-12-01T07:29:19.378Z,10.90
2022-12-01T07:31:47.158Z,9.80
2022-12-01T07:34:14.987Z,9.20
2022-12-01T07:36:42.646Z,9.90
2022-12-01T07:39:10.341Z,9.40
2022-12-01T07:41:38.204Z,9.00
2022-12-01T07:44:06.035Z,9.10
2022-12-01T07:46:33.824Z,8.90
2022-12-01T07:49:01.701Z,9.80
2022-12-01T07:51:29.431Z,9.00
2022-12-01T07:54:02.782Z,9.60
2022-12-01T07:56:31.502Z,9.90
2022-12-01T07:58:59.784Z,10.20
2022-12-01T08:01:27.658Z,9.90
2022-12-01T08:03:57.675Z,9.10
2022-12-01T08:06:26.330Z,9.60
2022-12-01T08:08:54.185Z,10.10
2022-12-01T08:11:24.600Z,10.00
2022-12-01T08:13:53.689Z,10.50
2022-12-01T08:16:25.030Z,10.40
2022-12-01T08:18:53.317Z,10.20
2022-12-01T08:21:23.480Z,11.00
2022-12-01T08:23:54.695Z,10.70
2022-12-01T08:26:24.284Z,11.10
2022-12-01T08:28:52.285Z,10.70
2022-12-01T08:31:29.530Z,12.00
2022-12-01T08:33:58.131Z,11.80
2022-12-01T08:36:26.815Z,11.60
2022-12-01T08:38:56.385Z,11.40
2022-12-01T08:41:25.046Z,12.00
2022-12-01T08:43:58.299Z,11.40
2022-12-01T08:46:30.973Z,12.30
2022-12-01T08:48:59.042Z,13.00
2022-12-01T08:51:27.043Z,12.50
2022-12-01T08:53:56.634Z,13.10
2022-12-01T08:56:29.860Z,14.90
2022-12-01T08:58:58.698Z,13.90
2022-12-01T09:01:29.332Z,14.30
2022-12-01T09:04:06.482Z,14.60
2022-12-01T09:06:40.451Z,16.30
2022-12-01T09:09:13.126Z,15.10
2022-12-01T09:11:44.001Z,16.50
2022-12-01T09:14:13.388Z,14.60
2022-12-01T09:16:42.856Z,15.40
2022-12-01T09:19:13.219Z,15.30
2022-12-01T09:21:43.442Z,15.20
2022-12-01T09:24:14.877Z,14.60
2022-12-01T09:26:43.027Z,14.20
2022-12-01T09:29:13.968Z,14.60
2022-12-01T09:31:42.859Z,16.00
2022-12-01T09:34:15.528Z,15.50
2022-12-01T09:36:43.871Z,16.70
2022-12-01T09:39:14.279Z,16.70
2022-12-01T09:41:47.743Z,16.20
2022-12-01T09:44:30.857Z,15.20
2022-12-01T09:47:19.218Z,15.70
2022-12-01T09:50:02.404Z,14.20
2022-12-01T09:52:38.716Z,15.30
2022-12-01T09:55:14.293Z,15.30
2022-12-01T09:57:48.019Z,16.10
2022-12-01T10:00:20.527Z,16.30
2022-12-01T10:03:12.333Z,16.40
2022-12-01T10:06:24.663Z,16.40
2022-12-01T10:08:41.743Z,17.10
2022-12-01T10:11:20.526Z,18.20
2022-12-01T10:13:48.581Z,17.70
2022-12-01T10:16:26.414Z,17.90
2022-12-01T10:19:05.991Z,18.20
2022-12-01T10:21:50.980Z,19.10
2022-12-01T10:24:38.353Z,17.00
2022-12-01T10:27:28.165Z,16.10
2022-12-01T10:30:05.686Z,16.40
2022-12-01T10:32:48.006Z,16.20
2022-12-01T10:35:18.904Z,18.10
2022-12-01T10:37:54.718Z,16.80
2022-12-01T10:40:23.265Z,16.70
2022-12-01T10:42:51.392Z,15.00
2022-12-01T10:45:35.346Z,15.50
2022-12-01T10:48:15.768Z,15.50
2022-12-01T10:50:50.147Z,16.50
2022-12-01T10:53:34.210Z,14.90
2022-12-01T10:56:08.580Z,14.70
2022-12-01T10:58:49.226Z,14.00
2022-12-01T11:01:22.946Z,13.00
2022-12-01T11:03:57.444Z,13.00
2022-12-01T11:06:28.569Z,12.90
2022-12-01T11:09:00.196Z,12.10
2022-12-01T11:11:34.200Z,10.70
2022-12-01T11:14:16.283Z,12.00
2022-12-01T11:16:46.849Z,11.40
2022-12-01T11:19:32.648Z,10.40
2022-12-01T11:22:03.273Z,10.00
2022-12-01T11:24:58.033Z,10.90
2022-12-01T11:27:30.303Z,9.40
2022-12-01T11:30:20.279Z,4.90
2022-12-01T11:32:59.701Z,4.40
2022-12-01T11:35:31.955Z,4.20
2022-12-01T11:40:54.541Z,5.80
2022-12-01T11:43:28.140Z,5.50
2022-12-01T11:45:58.889Z,4.40
2022-12-01T11:48:29.928Z,5.00
2022-12-01T11:51:37.738Z,4.40
2022-12-01T11:54:24.625Z,4.10
2022-12-01T11:57:25.431Z,4.10
2022-12-01T11:59:41.926Z,4.40
2022-12-01T12:02:48.241Z,4.70
2022-12-01T12:05:37.373Z,4.70
2022-12-01T12:08:29.059Z,5.40
2022-12-01T12:11:15.708Z,5.40
2022-12-01T12:14:10.433Z,5.80
2022-12-01T12:17:08.751Z,6.50
2022-12-01T12:20:07.204Z,5.90
2022-12-01T12:23:08.144Z,5.20
2022-12-01T12:26:00.993Z,5.50
2022-12-01T12:28:50.103Z,4.60
2022-12-01T12:31:39.670Z,5.10
2022-12-01T12:34:31.914Z,4.90
2022-12-01T12:37:22.990Z,5.70
2022-12-01T12:40:26.710Z,6.00
2022-12-01T12:43:19.402Z,6.30
2022-12-01T12:46:19.665Z,6.40
2022-12-01T12:49:20.233Z,7.50
2022-12-01T12:51:58.433Z,6.40
2022-12-01T12:54:35.916Z,6.40
2022-12-01T12:57:12.058Z,6.40
2022-12-01T12:59:48.814Z,5.40
2022-12-01T13:02:27.174Z,5.70
2022-12-01T13:05:20.720Z,4.90
2022-12-01T13:08:20.315Z,5.30
2022-12-01T13:11:03.233Z,5.70
2022-12-01T13:13:41.172Z,6.30
2022-12-01T13:16:15.883Z,6.00
2022-12-01T13:18:56.480Z,6.30
2022-12-01T13:21:24.387Z,5.80
2022-12-01T13:23:52.780Z,5.60
2022-12-01T13:26:22.117Z,5.60
2022-12-01T13:28:53.791Z,5.90
2022-12-01T13:31:22.490Z,6.30
2022-12-01T13:34:03.620Z,6.10
2022-12-01T13:36:49.187Z,5.90
2022-12-01T13:39:24.656Z,7.20
2022-12-01T13:42:04.998Z,6.70
2022-12-01T13:44:40.292Z,6.30
2022-12-01T13:47:37.032Z,7.20
2022-12-01T13:50:43.733Z,8.10
2022-12-01T13:53:33.089Z,7.90
2022-12-01T13:56:25.689Z,8.20
2022-12-01T13:58:54.864Z,7.70
2022-12-01T14:01:44.589Z,7.40
2022-12-01T14:04:32.485Z,7.60
2022-12-01T14:07:19.315Z,7.00
2022-12-01T14:09:51.150Z,6.90
2022-12-01T14:12:24.057Z,6.60
2022-12-01T14:14:57.293Z,6.70
2022-12-01T14:17:31.458Z,7.20
2022-12-01T14:20:21.513Z,7.60
2022-12-01T14:23:13.209Z,8.30
2022-12-01T14:25:42.683Z,8.30
2022-12-01T14:28:18.170Z,10.30
2022-12-01T14:31:06.091Z,6.10
2022-12-01T14:33:49.165Z,7.00
2022-12-01T14:36:34.762Z,8.30
2022-12-01T14:39:12.556Z,9.30
2022-12-01T14:41:48.799Z,9.30
2022-12-01T14:44:26.686Z,9.70
2022-12-01T14:47:01.880Z,10.50
2022-12-01T14:49:38.176Z,10.00
2022-12-01T14:52:13.941Z,10.70
2022-12-01T14:54:46.668Z,9.50
2022-12-01T14:57:18.330Z,9.60
2022-12-01T14:59:46.235Z,10.40
2022-12-01T15:02:14.772Z,10.10
2022-12-01T15:05:14.542Z,10.40
2022-12-01T15:07:46.437Z,10.80
2022-12-01T15:10:21.579Z,10.90
2022-12-01T15:12:50.505Z,10.60
2022-12-01T15:15:24.372Z,11.20
2022-12-01T15:17:55.662Z,10.90
2022-12-01T15:20:37.491Z,12.00
2022-12-01T15:23:13.752Z,14.70
2022-12-01T15:25:44.060Z,14.20
2022-12-01T15:28:16.807Z,13.20
2022-12-01T15:30:48.183Z,12.70
2022-12-01T15:33:28.401Z,12.90
2022-12-01T15:36:00.685Z,12.90
2022-12-01T15:38:33.400Z,11.80
2022-12-01T15:43:56.140Z,12.50
2022-12-01T15:46:30.790Z,12.00
2022-12-01T15:49:09.146Z,13.50
2022-12-01T15:51:37.066Z,14.10
2022-12-01T15:54:05.230Z,14.90
2022-12-01T15:56:36.472Z,16.30
2022-12-01T15:59:27.560Z,16.10
2022-12-01T16:01:56.947Z,15.80
2022-12-01T16:04:28.514Z,15.20
2022-12-01T16:07:01.968Z,14.30
2022-12-01T16:09:36.766Z,14.30
2022-12-01T16:12:18.533Z,15.10
2022-12-01T16:15:14.005Z,14.90
2022-12-01T16:17:45.960Z,14.40
2022-12-01T16:20:18.333Z,14.10
2022-12-01T16:22:48.984Z,14.50
2022-12-01T16:25:28.683Z,13.30
2022-12-01T16:27:57.394Z,13.10
2022-12-01T16:30:30.251Z,10.80
2022-12-01T16:33:04.755Z,7.80
2022-12-01T16:35:34.085Z,7.90
2022-12-01T16:38:15.709Z,8.70
2022-12-01T16:40:43.794Z,8.60
2022-12-01T16:43:16.264Z,10.30
2022-12-01T16:45:46.008Z,9.10
2022-12-01T16:48:13.752Z,9.70
2022-12-01T16:50:41.508Z,9.40
2022-12-01T16:53:10.500Z,8.80
2022-12-01T16:55:44.205Z,9.10
2022-12-01T16:58:12.253Z,10.00
2022-12-01T17:00:40.145Z,9.50
2022-12-01T17:03:11.799Z,10.50
2022-12-01T17:05:40.283Z,10.90
2022-12-01T17:08:08.612Z,11.00
2022-12-01T17:10:40.962Z,10.90
2022-12-01T17:13:08.938Z,11.70
2022-12-01T17:15:42.120Z,12.10
2022-12-01T17:18:10.283Z,13.00
2022-12-01T17:20:38.137Z,15.20
2022-12-01T17:23:06.187Z,14.50
2022-12-01T17:25:34.780Z,14.00
2022-12-01T17:28:02.577Z,13.50
2022-12-01T17:30:30.525Z,13.60
2022-12-01T17:32:58.489Z,13.80
2022-12-01T17:35:26.362Z,14.20
2022-12-01T17:37:54.236Z,13.60
2022-12-01T17:40:22.000Z,12.40
2022-12-01T17:42:51.132Z,12.30
2022-12-01T17:45:19.591Z,12.90
2022-12-01T17:47:47.542Z,13.60
2022-12-01T17:50:15.931Z,15.10
2022-12-01T17:52:43.855Z,17.10
2022-12-01T17:55:11.614Z,16.70
2022-12-01T17:57:39.428Z,15.50
2022-12-01T18:00:07.907Z,15.10
2022-12-01T18:02:36.724Z,16.90
2022-12-01T18:05:05.022Z,18.50
2022-12-01T18:07:33.015Z,17.60
2022-12-01T18:10:01.098Z,16.70
2022-12-01T18:12:28.951Z,15.30
2022-12-01T18:14:56.854Z,15.60
2022-12-01T18:17:26.163Z,14.20
2022-12-01T18:19:55.744Z,13.70
2022-12-01T18:22:24.553Z,13.40
2022-12-01T18:24:52.993Z,14.10
2022-12-01T18:27:20.997Z,14.30
2022-12-01T18:29:48.789Z,14.20
2022-12-01T18:32:17.010Z,15.30
2022-12-01T18:34:45.067Z,14.30
2022-12-01T18:37:16.214Z,15.10
2022-12-01T18:39:45.445Z,15.40
2022-12-01T18:42:14.471Z,14.90
2022-12-01T18:44:44.286Z,15.10
2022-12-01T18:47:14.131Z,15.90
2022-12-01T18:49:42.276Z,15.00
2022-12-01T18:52:13.599Z,15.60
2022-12-01T18:54:44.290Z,14.30
2022-12-01T18:57:14.729Z,15.20
2022-12-01T18:59:42.944Z,14.70
2022-12-01T19:02:10.855Z,14.90
2022-12-01T19:04:40.472Z,14.60
2022-12-01T19:07:08.294Z,14.60
2022-12-01T19:09:36.120Z,14.30
2022-12-01T19:12:04.833Z,15.00
2022-12-01T19:14:35.456Z,14.00
2022-12-01T19:17:03.758Z,14.60
2022-12-01T19:19:37.372Z,12.90
2022-12-01T19:22:05.987Z,13.50
2022-12-01T19:24:33.972Z,14.30
2022-12-01T19:27:03.097Z,14.20
2022-12-01T19:29:30.877Z,14.80
2022-12-01T19:31:58.889Z,14.30
2022-12-01T19:34:26.711Z,14.70
2022-12-01T19:36:59.639Z,13.50
2022-12-01T19:39:27.984Z,15.50
2022-12-01T19:41:58.388Z,15.10
2022-12-01T19:44:27.609Z,15.60
2022-12-01T19:46:55.598Z,18.20
2022-12-01T19:49:23.550Z,18.20
2022-12-01T19:51:51.490Z,18.50
2022-12-01T19:54:20.332Z,18.00
2022-12-01T19:56:49.144Z,17.60
2022-12-01T19:59:16.920Z,21.50
2022-12-01T20:01:44.972Z,17.80
2022-12-01T20:04:13.538Z,18.00
2022-12-01T20:06:41.332Z,18.00
2022-12-01T20:09:15.955Z,18.20
2022-12-01T20:11:59.029Z,17.40
2022-12-01T20:14:30.152Z,17.40
2022-12-01T20:16:58.134Z,17.20
2022-12-01T20:19:26.019Z,16.60
2022-12-01T20:21:57.383Z,17.50
2022-12-01T20:24:25.475Z,17.60
2022-12-01T20:26:58.964Z,18.30
2022-12-01T20:29:29.851Z,16.80
2022-12-01T20:32:01.588Z,16.40
2022-12-01T20:34:36.278Z,16.90
2022-12-01T20:37:05.349Z,19.10
2022-12-01T20:39:35.338Z,17.90
2022-12-01T20:42:05.706Z,17.70
2022-12-01T20:44:33.605Z,17.60
2022-12-01T20:47:01.717Z,19.60
2022-12-01T20:49:29.623Z,18.50
2022-12-01T20:51:57.639Z,19.10
2022-12-01T20:54:28.760Z,18.90
2022-12-01T20:56:58.287Z,18.70
2022-12-01T20:59:26.991Z,19.30
2022-12-01T21:01:54.904Z,15.90
2022-12-01T21:04:22.767Z,14.90
2022-12-01T21:06:50.531Z,15.40
2022-12-01T21:09:18.408Z,16.00
2022-12-01T21:12:02.398Z,16.80
2022-12-01T21:14:37.474Z,16.60
2022-12-01T21:17:33.263Z,16.30
2022-12-01T21:20:17.922Z,16.60
2022-12-01T21:22:46.168Z,17.00
2022-12-01T21:25:18.969Z,15.70
2022-12-01T21:27:47.500Z,15.40
2022-12-01T21:30:19.137Z,14.70
2022-12-01T21:32:48.350Z,13.50
2022-12-01T21:35:21.664Z,13.70
2022-12-01T21:37:51.271Z,15.00
2022-12-01T21:40:23.505Z,13.90
2022-12-01T21:42:51.541Z,14.90
2022-12-01T21:45:26.085Z,12.80
2022-12-01T21:48:00.132Z,12.10
2022-12-01T21:50:28.012Z,11.40
2022-12-01T21:52:55.814Z,10.90
2022-12-01T21:55:33.160Z,12.10
2022-12-01T21:58:01.277Z,10.80
2022-12-01T22:00:33.544Z,11.30
2022-12-01T22:03:29.673Z,12.30
2022-12-01T22:06:32.966Z,15.00
2022-12-01T22:09:12.582Z,14.80
2022-12-01T22:11:43.337Z,15.80
2022-12-01T22:14:16.018Z,16.50
2022-12-01T22:16:54.479Z,16.30
2022-12-01T22:19:29.117Z,16.50
2022-12-01T22:22:29.087Z,17.00
2022-12-01T22:25:01.788Z,16.70
2022-12-01T22:27:35.573Z,16.80
2022-12-01T22:30:23.752Z,16.20
2022-12-01T22:32:58.351Z,15.90
2022-12-01T22:35:31.483Z,15.80
2022-12-01T22:38:17.178Z,14.90
2022-12-01T22:40:55.619Z,16.90
2022-12-01T22:43:27.478Z,15.40
2022-12-01T22:46:07.196Z,15.70
2022-12-01T22:48:40.234Z,14.10
2022-12-01T22:51:25.659Z,14.30
2022-12-01T22:54:01.018Z,13.80
2022-12-01T22:56:39.838Z,14.10
2022-12-01T22:59:22.700Z,14.50
2022-12-01T23:01:56.496Z,16.30
2022-12-01T23:04:27.198Z,17.40
2022-12-01T23:07:00.362Z,17.00
2022-12-01T23:09:35.935Z,13.10
2022-12-01T23:12:24.983Z,12.10
2022-12-01T23:14:55.984Z,11.80
2022-12-01T23:17:34.190Z,11.70
2022-12-01T23:20:26.042Z,12.40
2022-12-01T23:22:56.099Z,12.00
2022-12-01T23:25:25.456Z,14.90
2022-12-01T23:27:56.000Z,21.20
2022-12-01T23:30:24.298Z,18.40
2022-12-01T23:33:01.871Z,19.30
2022-12-01T23:35:31.141Z,18.70
2022-12-01T23:37:59.150Z,16.00
2022-12-01T23:40:35.447Z,16.70
2022-12-01T23:43:15.659Z,15.50
2022-12-01T23:45:44.342Z,12.50
2022-12-01T23:48:19.305Z,12.10
2022-12-01T23:50:52.170Z,15.80
2022-12-01T23:53:30.762Z,16.60
2022-12-01T23:56:06.673Z,16.40
2022-12-01T23:58:34.706Z,17.30
